Time;durP1;ratioP1;P1;durP2;ratioP2;P2;SDS_P1;SDS_P2;PMS_P1;PMS_P2;Temp;Humidity;BMP_temperature;BMP_pressure;BME280_temperature;BME280_humidity;BME280_pressure;Samples;Min_cycle;Max_cycle;Signal;HPM_P1;HPM_P2
2024/04/16 00:00:25;;;;;;;10.13;4.17;;;;;;;9.34;100.00;99191.78;1725628;83;21061;-80
2024/04/16 00:02:54;;;;;;;8.93;4.00;;;;;;;9.34;100.00;99195.88;1725565;82;21054;-80
2024/04/16 00:05:22;;;;;;;7.42;4.10;;;;;;;9.32;100.00;99200.73;1725714;83;21043;-81
2024/04/16 00:07:52;;;;;;;8.50;3.50;;;;;;;9.29;100.00;99217.56;1725735;83;21050;-78
2024/04/16 00:10:20;;;;;;;7.83;3.98;;;;;;;9.30;100.00;99216.52;1725767;83;21062;-80
2024/04/16 00:12:48;;;;;;;10.50;4.22;;;;;;;9.28;100.00;99238.59;1725650;83;21380;-81
2024/04/16 00:15:22;;;;;;;7.80;4.20;;;;;;;9.27;100.00;99234.71;1694443;82;21042;-80
2024/04/16 00:17:51;;;;;;;5.95;3.98;;;;;;;9.29;100.00;99236.70;1725573;83;21514;-79
2024/04/16 00:20:19;;;;;;;9.05;4.60;;;;;;;9.31;100.00;99251.83;1725292;83;21041;-79
2024/04/16 00:22:48;;;;;;;7.45;3.92;;;;;;;9.29;100.00;99266.23;1725733;83;21031;-81
2024/04/16 00:25:16;;;;;;;8.10;4.30;;;;;;;9.25;100.00;99262.79;1725656;83;21474;-78
2024/04/16 00:27:45;;;;;;;6.62;4.28;;;;;;;9.27;100.00;99267.51;1725741;83;21035;-81
2024/04/16 00:30:13;;;;;;;10.98;4.25;;;;;;;9.26;100.00;99250.27;1725592;83;21552;-81
2024/04/16 00:32:42;;;;;;;9.28;4.53;;;;;;;9.25;100.00;99255.95;1725603;83;21035;-81
2024/04/16 00:35:11;;;;;;;9.63;4.55;;;;;;;9.28;100.00;99242.70;1725720;83;21026;-80
2024/04/16 00:37:39;;;;;;;7.80;4.78;;;;;;;9.28;100.00;99233.13;1725672;83;21077;-80
2024/04/16 00:40:08;;;;;;;8.55;4.35;;;;;;;9.31;100.00;99219.03;1725427;83;21529;-81
2024/04/16 00:42:37;;;;;;;8.88;4.12;;;;;;;9.33;100.00;99207.87;1725604;83;21050;-80
2024/04/16 00:45:08;;;;;;;5.72;4.08;;;;;;;9.35;100.00;99186.09;1726044;83;21081;-81
2024/04/16 00:47:36;;;;;;;7.35;3.70;;;;;;;9.36;100.00;99165.06;1725742;83;21066;-80
2024/04/16 00:50:06;;;;;;;7.22;3.80;;;;;;;9.37;100.00;99155.28;1727341;83;21018;-81
2024/04/16 00:52:34;;;;;;;6.33;3.70;;;;;;;9.37;100.00;99131.20;1706515;83;21066;-78
2024/04/16 00:55:04;;;;;;;7.10;3.72;;;;;;;9.36;100.00;99124.91;1725842;82;21030;-81
2024/04/16 00:57:33;;;;;;;7.05;3.70;;;;;;;9.34;100.00;99135.75;1733999;81;21450;-82
2024/04/16 01:00:01;;;;;;;9.95;3.90;;;;;;;9.30;100.00;99114.02;1746095;82;20986;-80
2024/04/16 01:02:30;;;;;;;8.65;4.45;;;;;;;9.32;100.00;99087.30;1746472;82;21034;-80
2024/04/16 01:04:58;;;;;;;6.55;3.98;;;;;;;9.36;100.00;99076.23;1746073;82;21050;-80
2024/04/16 01:07:27;;;;;;;6.85;3.80;;;;;;;9.37;100.00;99087.47;1745994;82;21046;-79
2024/04/16 01:09:55;;;;;;;5.22;3.45;;;;;;;9.38;100.00;99088.61;1746027;82;21030;-80
2024/04/16 01:12:23;;;;;;;5.53;3.05;;;;;;;9.38;100.00;99105.55;1746072;82;21423;-80
2024/04/16 01:14:51;;;;;;;5.37;3.00;;;;;;;9.35;100.00;99110.09;1746296;82;21046;-78
2024/04/16 01:17:20;;;;;;;8.50;2.90;;;;;;;9.33;100.00;99101.27;1746429;82;21018;-79
2024/04/16 01:19:48;;;;;;;6.67;3.45;;;;;;;9.29;100.00;99089.95;1746409;82;21010;-78
2024/04/16 01:22:16;;;;;;;5.37;3.30;;;;;;;9.28;100.00;99121.59;1746176;82;22453;-78
2024/04/16 01:24:45;;;;;;;9.95;3.45;;;;;;;9.30;100.00;99153.12;1746220;82;20970;-79
2024/04/16 01:27:13;;;;;;;7.70;3.27;;;;;;;9.29;100.00;99148.70;1746347;82;21002;-79
2024/04/16 01:29:41;;;;;;;8.45;3.20;;;;;;;9.32;100.00;99136.50;1746069;82;20994;-79
2024/04/16 01:32:10;;;;;;;11.05;3.42;;;;;;;9.36;100.00;99129.53;1746142;82;21010;-78
2024/04/16 01:34:38;;;;;;;7.92;3.20;;;;;;;9.37;100.00;99125.74;1746043;82;20963;-75
2024/04/16 01:37:07;;;;;;;7.33;3.30;;;;;;;9.40;100.00;99115.73;1746164;82;21912;-77
2024/04/16 01:39:35;;;;;;;10.63;3.50;;;;;;;9.42;100.00;99102.14;1746053;82;21009;-77
2024/04/16 01:42:05;;;;;;;7.58;3.35;;;;;;;9.42;100.00;99103.52;1746131;82;20994;-79
2024/04/16 01:44:34;;;;;;;8.55;3.55;;;;;;;9.42;100.00;99114.45;1746102;82;20995;-78
2024/04/16 01:47:02;;;;;;;6.95;3.30;;;;;;;9.44;100.00;99100.55;1746250;82;21018;-78
2024/04/16 01:49:31;;;;;;;6.35;3.20;;;;;;;9.44;100.00;99097.83;1746173;82;21026;-78
2024/04/16 01:52:01;;;;;;;7.53;3.17;;;;;;;9.46;100.00;99095.70;1746151;82;21022;-77
2024/04/16 01:54:30;;;;;;;6.25;3.20;;;;;;;9.48;100.00;99104.52;1746076;82;21009;-77
2024/04/16 01:56:58;;;;;;;5.05;2.90;;;;;;;9.48;100.00;99106.72;1745941;82;21086;-78
2024/04/16 01:59:26;;;;;;;7.58;3.10;;;;;;;9.44;100.00;99103.29;1751618;82;21017;-78
2024/04/16 02:01:55;;;;;;;7.47;3.72;;;;;;;9.36;100.00;99115.86;1730870;82;20998;-77
2024/04/16 02:04:23;;;;;;;5.55;2.67;;;;;;;9.31;100.00;99123.36;1751589;82;20998;-77
2024/04/16 02:06:51;;;;;;;4.50;2.90;;;;;;;9.30;100.00;99129.89;1730886;82;21046;-78
2024/04/16 02:09:19;;;;;;;9.35;3.67;;;;;;;9.28;100.00;99151.14;1751704;82;20989;-77
2024/04/16 02:11:48;;;;;;;6.37;3.25;;;;;;;9.32;100.00;99150.16;1751510;82;20962;-76
2024/04/16 02:14:16;;;;;;;5.37;3.02;;;;;;;9.37;100.00;99172.20;1751845;82;20966;-77
2024/04/16 02:16:44;;;;;;;6.30;3.60;;;;;;;9.38;100.00;99167.89;1751538;82;21535;-77
2024/04/16 02:19:13;;;;;;;7.08;3.70;;;;;;;9.39;100.00;99169.56;1751727;82;21014;-77
2024/04/16 02:21:41;;;;;;;6.33;3.62;;;;;;;9.43;100.00;99185.00;1751674;82;21337;-78
2024/04/16 02:24:10;;;;;;;7.42;3.75;;;;;;;9.47;100.00;99188.44;1751609;82;21003;-77
2024/04/16 02:26:38;;;;;;;7.30;3.42;;;;;;;9.51;100.00;99214.81;1751770;82;21438;-76
2024/04/16 02:29:06;;;;;;;8.53;4.30;;;;;;;9.54;100.00;99215.73;1751373;82;21437;-79
2024/04/16 02:31:35;;;;;;;7.92;4.00;;;;;;;9.57;100.00;99208.98;1751748;82;21002;-77
2024/04/16 02:34:03;;;;;;;8.85;4.20;;;;;;;9.59;100.00;99213.17;1751827;82;21037;-78
2024/04/16 02:36:32;;;;;;;7.83;3.67;;;;;;;9.59;100.00;99210.44;1751889;82;21006;-78
2024/04/16 02:39:00;;;;;;;7.83;3.60;;;;;;;9.59;100.00;99209.08;1751663;82;21006;-78
2024/04/16 02:41:29;;;;;;;9.55;3.90;;;;;;;9.59;100.00;99210.44;1751584;82;21001;-78
2024/04/16 02:43:57;;;;;;;8.25;3.62;;;;;;;9.60;100.00;99205.81;1751629;82;21006;-81
2024/04/16 02:46:27;;;;;;;8.68;3.65;;;;;;;9.60;100.00;99198.45;1751814;82;20954;-80
2024/04/16 02:48:56;;;;;;;7.45;4.10;;;;;;;9.60;100.00;99190.77;1751592;82;21018;-78
2024/04/16 02:51:25;;;;;;;8.93;4.20;;;;;;;9.58;100.00;99169.12;1751608;82;21427;-74
2024/04/16 02:53:54;;;;;;;7.80;4.60;;;;;;;9.59;100.00;99154.39;1751562;82;21065;-72
2024/04/16 02:56:22;;;;;;;6.05;3.50;;;;;;;9.59;100.00;99158.48;1751703;82;20990;-75
2024/04/16 02:58:51;;;;;;;5.22;2.60;;;;;;;9.59;100.00;99155.75;1747761;81;21470;-73
2024/04/16 03:01:19;;;;;;;5.42;3.08;;;;;;;9.56;100.00;99141.69;1746071;82;21022;-80
2024/04/16 03:03:47;;;;;;;5.92;3.05;;;;;;;9.54;100.00;99128.23;1746075;82;20998;-82
2024/04/16 03:06:16;;;;;;;7.37;3.30;;;;;;;9.52;100.00;99116.69;1746139;82;21466;-83
2024/04/16 03:08:44;;;;;;;6.40;2.83;;;;;;;9.50;100.00;99114.70;1746996;82;21006;-84
2024/04/16 03:11:12;;;;;;;7.53;2.90;;;;;;;9.51;100.00;99116.37;1749554;79;21007;-84
2024/04/16 03:13:41;;;;;;;6.50;2.98;;;;;;;9.50;100.00;99108.70;1750320;82;21037;-85
2024/04/16 03:16:09;;;;;;;7.90;3.00;;;;;;;9.50;100.00;99096.94;1746704;82;21030;-85
2024/04/16 03:18:38;;;;;;;5.65;3.12;;;;;;;9.50;100.00;99090.09;1746789;82;20990;-85
2024/04/16 03:21:06;;;;;;;5.80;3.20;;;;;;;9.50;100.00;99076.43;1747558;82;21030;-85
2024/04/16 03:23:35;;;;;;;6.08;3.15;;;;;;;9.51;100.00;99069.91;1746795;81;21422;-83
2024/04/16 03:26:03;;;;;;;6.70;3.40;;;;;;;9.50;100.00;99046.35;1746457;82;20998;-85
2024/04/16 03:28:32;;;;;;;8.20;3.02;;;;;;;9.50;100.00;99035.42;1746143;82;21058;-82
2024/04/16 03:31:01;;;;;;;7.05;4.22;;;;;;;9.47;100.00;99029.03;1746120;82;20998;-83
2024/04/16 03:33:32;;;;;;;6.75;3.25;;;;;;;9.43;100.00;99026.44;1746199;82;20958;-82
2024/04/16 03:36:00;;;;;;;6.42;3.10;;;;;;;9.41;100.00;99023.09;1746077;82;21605;-82
2024/04/16 03:38:29;;;;;;;7.42;3.30;;;;;;;9.40;100.00;99018.69;1746212;82;21014;-81
2024/04/16 03:40:58;;;;;;;10.38;3.90;;;;;;;9.41;100.00;99013.52;1746207;82;21305;-83
2024/04/16 03:43:27;;;;;;;9.03;3.40;;;;;;;9.42;100.00;99001.53;1715656;82;21090;-81
2024/04/16 03:45:56;;;;;;;8.38;4.00;;;;;;;9.40;100.00;98989.98;1746167;82;20986;-80
2024/04/16 03:48:24;;;;;;;9.48;4.47;;;;;;;9.41;100.00;98990.30;1746361;82;21053;-82
2024/04/16 03:50:53;;;;;;;6.40;3.83;;;;;;;9.41;100.00;98982.09;1746079;82;21070;-83
2024/04/16 03:53:21;;;;;;;5.85;3.83;;;;;;;9.43;100.00;98981.33;1746146;82;21014;-84
2024/04/16 03:55:49;;;;;;;9.05;4.55;;;;;;;9.43;100.00;98973.97;1746290;82;21036;-80
2024/04/16 03:58:18;;;;;;;9.25;4.85;;;;;;;9.44;100.00;98976.17;1746099;82;21002;-78
2024/04/16 04:01:03;;;;;;;7.33;4.25;;;;;;;9.43;100.00;98974.50;1746087;82;20986;-80
2024/04/16 04:03:32;;;;;;;7.08;4.50;;;;;;;9.43;100.00;98978.07;1719683;82;20994;-81
2024/04/16 04:06:00;;;;;;;10.90;4.85;;;;;;;9.42;100.00;98976.93;1746228;82;21046;-81
2024/04/16 04:08:28;;;;;;;9.70;5.25;;;;;;;9.44;100.00;98974.80;1746078;82;21038;-80
2024/04/16 04:10:57;;;;;;;10.68;5.25;;;;;;;9.43;100.00;98975.34;1746165;82;21006;-80
2024/04/16 04:13:25;;;;;;;10.60;5.37;;;;;;;9.45;100.00;98969.64;1746103;82;21931;-80
2024/04/16 04:15:56;;;;;;;9.18;5.42;;;;;;;9.43;100.00;98980.80;1746217;82;20994;-79
2024/04/16 04:18:24;;;;;;;9.00;5.20;;;;;;;9.43;100.00;98989.54;1745992;82;20985;-78
2024/04/16 04:20:52;;;;;;;7.55;4.55;;;;;;;9.39;100.00;98988.31;1746269;82;21038;-78
2024/04/16 04:23:20;;;;;;;8.35;4.60;;;;;;;9.40;100.00;99000.92;1745991;82;21505;-80
2024/04/16 04:25:48;;;;;;;7.92;4.08;;;;;;;9.43;100.00;99019.61;1746114;82;20987;-78
2024/04/16 04:28:17;;;;;;;7.62;4.10;;;;;;;9.42;100.00;99054.31;1746153;82;21042;-77
2024/04/16 04:30:45;;;;;;;5.72;3.55;;;;;;;9.43;100.00;99069.65;1746213;82;21018;-77
2024/04/16 04:33:13;;;;;;;6.65;4.10;;;;;;;9.44;100.00;99089.09;1710646;82;21022;-76
2024/04/16 04:35:42;;;;;;;7.65;3.77;;;;;;;9.44;100.00;99091.83;1746039;82;21450;-76
2024/04/16 04:38:10;;;;;;;9.45;4.00;;;;;;;9.46;100.00;99098.44;1745977;82;21033;-78
2024/04/16 04:40:38;;;;;;;9.25;5.15;;;;;;;9.50;100.00;99102.41;1746021;82;21070;-76
2024/04/16 04:43:06;;;;;;;8.23;4.03;;;;;;;9.51;100.00;99114.48;1745889;82;21022;-78
2024/04/16 04:45:35;;;;;;;9.50;4.30;;;;;;;9.54;100.00;99109.09;1746115;82;21017;-78
2024/04/16 04:48:04;;;;;;;11.70;5.40;;;;;;;9.57;100.00;99122.33;1745990;82;21069;-81
2024/04/16 04:50:32;;;;;;;10.32;5.62;;;;;;;9.61;100.00;99122.72;1745939;82;20990;-78
2024/04/16 04:53:02;;;;;;;10.72;5.58;;;;;;;9.64;100.00;99125.84;1745901;82;21014;-77
2024/04/16 04:55:31;;;;;;;8.53;5.65;;;;;;;9.65;100.00;99119.31;1746033;82;21418;-79
2024/04/16 04:58:00;;;;;;;10.95;6.10;;;;;;;9.64;100.00;99119.00;1746448;82;21034;-81
2024/04/16 05:00:29;;;;;;;13.60;7.28;;;;;;;9.65;100.00;99118.48;1751597;82;21010;-80
2024/04/16 05:02:58;;;;;;;11.43;5.90;;;;;;;9.63;100.00;99109.13;1751713;82;21085;-83
2024/04/16 05:05:30;;;;;;;9.23;5.58;;;;;;;9.63;100.00;99114.59;1731437;82;21048;-82
2024/04/16 05:07:58;;;;;;;9.88;5.65;;;;;;;9.64;100.00;99108.59;1731311;82;21532;-82
2024/04/16 05:10:27;;;;;;;9.23;5.65;;;;;;;9.65;100.00;99107.01;1751723;82;21014;-80
2024/04/16 05:12:55;;;;;;;9.95;6.03;;;;;;;9.68;100.00;99095.63;1751392;82;21100;-80
2024/04/16 05:15:24;;;;;;;16.35;7.28;;;;;;;9.71;100.00;99098.44;1751434;82;21002;-82
2024/04/16 05:17:52;;;;;;;17.80;11.90;;;;;;;9.73;100.00;99088.95;1751517;82;21142;-83
2024/04/16 05:20:21;;;;;;;13.28;7.05;;;;;;;9.78;100.00;99085.57;1751769;82;20994;-80
2024/04/16 05:22:49;;;;;;;13.00;6.40;;;;;;;9.80;100.00;99082.08;1751776;82;21535;-81
2024/04/16 05:25:18;;;;;;;11.33;5.40;;;;;;;9.82;100.00;99074.48;1751866;82;21002;-81
2024/04/16 05:27:46;;;;;;;8.13;5.40;;;;;;;9.83;100.00;99065.22;1751668;82;20998;-81
2024/04/16 05:30:15;;;;;;;11.73;5.70;;;;;;;9.82;100.00;99058.91;1751531;82;20962;-81
2024/04/16 05:32:44;;;;;;;9.05;4.70;;;;;;;9.87;100.00;99052.76;1754549;82;21048;-80
2024/04/16 05:35:12;;;;;;;10.70;5.42;;;;;;;9.91;100.00;99049.04;1753604;82;21076;-81
2024/04/16 05:37:43;;;;;;;9.73;5.20;;;;;;;9.93;100.00;99035.97;1751871;82;21053;-80
2024/04/16 05:40:11;;;;;;;8.58;6.05;;;;;;;9.98;100.00;99042.44;1751964;82;21002;-81
2024/04/16 05:42:40;;;;;;;10.35;6.90;;;;;;;10.04;100.00;99033.31;1751536;82;21090;-78
2024/04/16 05:45:09;;;;;;;14.33;9.20;;;;;;;10.08;100.00;99033.16;1751684;82;21061;-79
2024/04/16 05:47:38;;;;;;;17.00;10.95;;;;;;;10.12;100.00;99036.28;1751782;82;21021;-78
2024/04/16 05:50:06;;;;;;;16.70;9.68;;;;;;;10.13;100.00;99029.73;1751612;82;21398;-78
2024/04/16 05:52:35;;;;;;;16.37;11.03;;;;;;;10.15;100.00;99041.30;1751571;82;21006;-78
2024/04/16 05:55:05;;;;;;;22.07;14.70;;;;;;;10.18;100.00;99043.05;1751509;82;21410;-79
2024/04/16 05:57:34;;;;;;;19.80;11.85;;;;;;;10.25;100.00;99046.27;1751651;82;21022;-78
2024/04/16 06:00:04;;;;;;;22.50;11.25;;;;;;;10.27;100.00;99057.83;1747087;82;20983;-78
2024/04/16 06:02:34;;;;;;;15.83;11.00;;;;;;;10.31;100.00;99051.66;1746221;82;20994;-78
2024/04/16 06:05:02;;;;;;;22.73;13.38;;;;;;;10.29;100.00;99052.42;1746022;82;21391;-79
2024/04/16 06:07:31;;;;;;;27.67;15.98;;;;;;;10.29;100.00;99059.27;1745996;82;21025;-77
2024/04/16 06:10:00;;;;;;;26.90;17.50;;;;;;;10.33;100.00;99061.02;1746002;82;21074;-78
2024/04/16 06:12:28;;;;;;;30.10;20.40;;;;;;;10.35;100.00;99050.67;1745986;82;21045;-78
2024/04/16 06:14:59;;;;;;;30.90;18.02;;;;;;;10.38;100.00;99052.95;1746125;81;21014;-78
2024/04/16 06:17:27;;;;;;;27.17;16.97;;;;;;;10.36;100.00;99049.07;1746325;82;20997;-76
2024/04/16 06:19:56;;;;;;;17.62;12.33;;;;;;;10.38;100.00;99048.84;1745916;82;21002;-77
2024/04/16 06:22:24;;;;;;;16.62;11.45;;;;;;;10.37;100.00;99043.06;1745856;82;21053;-77
2024/04/16 06:24:53;;;;;;;14.78;9.60;;;;;;;10.34;100.00;99040.78;1745871;82;21544;-77
2024/04/16 06:27:21;;;;;;;16.27;10.45;;;;;;;10.34;100.00;99042.99;1746160;82;21076;-77
2024/04/16 06:29:50;;;;;;;17.17;10.25;;;;;;;10.36;100.00;99036.75;1746017;82;21234;-76
2024/04/16 06:32:18;;;;;;;14.53;9.70;;;;;;;10.41;100.00;99031.98;1745934;82;21002;-77
2024/04/16 06:34:47;;;;;;;17.27;10.15;;;;;;;10.45;100.00;99033.20;1746073;82;21033;-77
2024/04/16 06:37:15;;;;;;;12.18;8.60;;;;;;;10.54;100.00;99027.70;1746090;82;21018;-77
2024/04/16 06:39:44;;;;;;;14.98;9.30;;;;;;;10.59;100.00;99024.27;1710658;82;21468;-77
2024/04/16 06:42:12;;;;;;;16.62;9.93;;;;;;;10.58;100.00;99008.91;1746190;82;21007;-77
2024/04/16 06:44:43;;;;;;;18.98;10.28;;;;;;;10.59;100.00;98994.14;1746179;82;21006;-76
2024/04/16 06:47:12;;;;;;;17.02;10.38;;;;;;;10.63;100.00;99001.67;1746055;82;21018;-79
2024/04/16 06:49:40;;;;;;;18.70;10.08;;;;;;;10.69;100.00;99002.64;1746035;82;21054;-76
2024/04/16 06:52:09;;;;;;;15.25;9.23;;;;;;;10.76;100.00;99002.01;1746076;82;21483;-80
2024/04/16 06:54:37;;;;;;;11.65;8.68;;;;;;;10.75;100.00;98997.59;1746293;82;21488;-78
2024/04/16 06:57:06;;;;;;;14.50;9.85;;;;;;;10.74;100.00;98995.39;1745955;82;21454;-78
2024/04/16 06:59:35;;;;;;;15.30;9.60;;;;;;;10.76;100.00;99002.01;1715420;82;21010;-78
2024/04/16 07:02:03;;;;;;;17.62;9.33;;;;;;;10.83;100.00;99004.66;1745974;82;21433;-78
2024/04/16 07:04:32;;;;;;;17.70;10.18;;;;;;;10.86;100.00;98989.95;1746072;82;21010;-78
2024/04/16 07:07:01;;;;;;;14.40;9.35;;;;;;;10.89;100.00;98988.11;1746253;82;21045;-78
2024/04/16 07:09:32;;;;;;;15.10;9.30;;;;;;;10.97;100.00;98991.05;1746013;82;21038;-76
2024/04/16 07:12:00;;;;;;;13.58;9.13;;;;;;;11.01;100.00;99005.95;1745971;82;21029;-79
2024/04/16 07:14:29;;;;;;;12.68;8.55;;;;;;;11.07;100.00;99016.84;1746120;82;21033;-82
2024/04/16 07:16:58;;;;;;;15.72;9.68;;;;;;;11.10;100.00;99009.52;1746038;82;21497;-79
2024/04/16 07:19:26;;;;;;;16.45;9.15;;;;;;;11.16;100.00;99004.17;1746408;82;21020;-77
2024/04/16 07:21:55;;;;;;;13.30;9.43;;;;;;;11.24;100.00;99015.63;1745923;82;21090;-77
2024/04/16 07:24:23;;;;;;;19.87;13.62;;;;;;;11.31;100.00;99022.37;1746071;82;21077;-78
2024/04/16 07:26:52;;;;;;;15.63;9.48;;;;;;;11.34;100.00;99013.13;1746106;82;21018;-78
2024/04/16 07:29:21;;;;;;;14.40;9.83;;;;;;;11.40;100.00;99018.20;1746038;82;21038;-78
2024/04/16 07:31:49;;;;;;;17.45;9.78;;;;;;;11.47;100.00;99015.35;1746273;81;21521;-79
2024/04/16 07:34:21;;;;;;;17.07;9.55;;;;;;;11.53;100.00;99024.83;1746177;82;21057;-80
2024/04/16 07:36:49;;;;;;;16.50;9.03;;;;;;;11.56;100.00;99025.73;1746303;82;21314;-80
2024/04/16 07:39:18;;;;;;;15.03;8.68;;;;;;;11.59;100.00;99029.37;1745827;82;21422;-77
2024/04/16 07:41:46;;;;;;;15.75;8.93;;;;;;;11.62;100.00;99028.89;1746346;82;21057;-82
2024/04/16 07:44:16;;;;;;;13.58;8.28;;;;;;;11.65;100.00;99030.33;1746056;82;20994;-78
2024/04/16 07:46:45;;;;;;;16.67;9.10;;;;;;;11.67;100.00;99024.90;1745796;82;20986;-80
2024/04/16 07:49:14;;;;;;;13.08;8.30;;;;;;;11.69;100.00;99017.80;1745940;82;21054;-79
2024/04/16 07:51:42;;;;;;;13.60;8.60;;;;;;;11.73;100.00;99021.23;1746297;82;21454;-79
2024/04/16 07:54:11;;;;;;;13.20;9.05;;;;;;;11.78;100.00;99027.94;1746862;82;20998;-79
2024/04/16 07:56:41;;;;;;;14.65;8.58;;;;;;;11.87;100.00;99024.59;1764110;80;21089;-81
2024/04/16 07:59:14;;;;;;;10.93;7.28;;;;;;;11.96;100.00;99017.66;1799790;79;21019;-80
2024/04/16 08:01:49;;;;;;;9.70;6.58;;;;;;;12.05;100.00;99019.50;1738685;80;21648;-76
2024/04/16 08:04:20;;;;;;;15.78;7.90;;;;;;;12.13;100.00;99001.28;1785278;80;21089;-82
2024/04/16 08:06:51;;;;;;;14.63;9.13;;;;;;;12.20;100.00;99001.15;1779080;80;21011;-79
2024/04/16 08:09:20;;;;;;;13.72;10.10;;;;;;;12.37;100.00;99003.46;1738301;81;21069;-81
2024/04/16 08:11:48;;;;;;;16.35;9.50;;;;;;;12.65;100.00;99001.27;1717881;82;21533;-78
2024/04/16 08:14:18;;;;;;;12.20;8.90;;;;;;;12.95;100.00;99004.58;1736444;81;20999;-78
2024/04/16 08:16:47;;;;;;;15.75;8.60;;;;;;;13.18;100.00;99006.42;1785027;80;20955;-79
2024/04/16 08:19:18;;;;;;;10.72;7.55;;;;;;;13.28;100.00;99003.02;1780462;80;21023;-78
2024/04/16 08:21:51;;;;;;;13.22;8.23;;;;;;;13.33;100.00;98997.05;1734077;82;21564;-80
2024/04/16 08:24:21;;;;;;;13.30;7.72;;;;;;;13.38;100.00;98989.43;1733081;82;21067;-80
2024/04/16 08:26:53;;;;;;;11.50;7.37;;;;;;;13.39;100.00;98981.47;1754008;82;21063;-80
2024/04/16 08:29:22;;;;;;;13.62;7.75;;;;;;;13.43;100.00;98985.92;1754134;80;21041;-78
2024/04/16 08:31:50;;;;;;;14.35;8.05;;;;;;;13.48;100.00;98992.88;1784905;80;21030;-78
2024/04/16 08:34:19;;;;;;;13.78;7.67;;;;;;;13.54;100.00;98996.84;1763547;80;21053;-76
2024/04/16 08:36:48;;;;;;;11.22;7.25;;;;;;;13.54;100.00;98982.25;1784968;80;21497;-77
2024/04/16 08:39:16;;;;;;;15.68;7.70;;;;;;;13.53;100.00;98974.53;1784446;80;21011;-77
2024/04/16 08:41:45;;;;;;;12.20;7.55;;;;;;;13.53;100.00;98985.54;1785355;80;21005;-77
2024/04/16 08:44:14;;;;;;;12.58;7.37;;;;;;;13.54;99.94;98979.50;1783565;80;21127;-79
2024/04/16 08:46:44;;;;;;;10.20;7.42;;;;;;;13.56;99.99;98977.32;1785119;80;21050;-79
2024/04/16 08:49:13;;;;;;;10.23;7.53;;;;;;;13.60;100.00;98979.86;1785195;80;21070;-73
2024/04/16 08:51:41;;;;;;;13.22;7.22;;;;;;;13.62;99.72;98988.16;1785122;80;21035;-78
2024/04/16 08:54:10;;;;;;;14.93;7.60;;;;;;;13.63;99.64;98979.36;1784894;80;21018;-79
2024/04/16 08:56:38;;;;;;;15.18;7.97;;;;;;;13.67;99.90;98983.84;1784952;80;21034;-80
2024/04/16 08:59:07;;;;;;;10.55;6.87;;;;;;;13.72;100.00;98974.28;1785049;80;20998;-81
2024/04/16 09:01:36;;;;;;;12.25;6.97;;;;;;;13.81;100.00;98981.03;1782505;80;21015;-79
2024/04/16 09:04:05;;;;;;;10.93;5.95;;;;;;;13.88;100.00;98978.92;1782286;80;21545;-77
2024/04/16 09:06:34;;;;;;;12.35;6.60;;;;;;;13.99;99.97;98983.48;1782463;80;21046;-80
2024/04/16 09:09:03;;;;;;;12.50;6.67;;;;;;;14.10;99.54;98975.64;1760753;80;21118;-81
2024/04/16 09:11:34;;;;;;;15.38;7.22;;;;;;;14.22;99.15;98970.01;1781389;79;21454;-77
2024/04/16 09:14:03;;;;;;;14.10;6.30;;;;;;;14.38;98.62;98965.55;1782354;80;21047;-79
2024/04/16 09:16:32;;;;;;;10.50;6.72;;;;;;;14.47;97.63;98964.87;1782243;80;21027;-77
2024/04/16 09:19:11;;;;;;;11.50;5.80;;;;;;;14.54;97.08;98954.47;1782259;80;20979;-79
2024/04/16 09:21:40;;;;;;;12.63;6.25;;;;;;;14.62;96.31;98942.16;1782353;80;21061;-78
2024/04/16 09:24:11;;;;;;;9.60;5.50;;;;;;;14.67;95.66;98939.45;1782329;80;21003;-77
2024/04/16 09:26:40;;;;;;;12.35;6.33;;;;;;;14.76;95.66;98941.19;1782253;80;21129;-76
2024/04/16 09:29:09;;;;;;;10.00;5.45;;;;;;;14.86;95.43;98942.66;1782255;80;21023;-76
2024/04/16 09:31:37;;;;;;;10.85;5.10;;;;;;;14.99;94.97;98948.33;1782202;80;20978;-78
2024/04/16 09:34:06;;;;;;;12.40;5.55;;;;;;;15.12;93.98;98957.55;1782328;80;21143;-76
2024/04/16 09:36:36;;;;;;;14.03;6.17;;;;;;;15.23;93.46;98955.99;1782198;80;21673;-75
2024/04/16 09:39:05;;;;;;;11.57;5.17;;;;;;;15.36;92.96;98949.20;1735141;80;21035;-79
2024/04/16 09:41:36;;;;;;;9.85;4.83;;;;;;;15.47;92.68;98944.58;1782202;80;21010;-79
2024/04/16 09:44:14;;;;;;;13.03;5.80;;;;;;;15.59;92.02;98944.42;1761129;80;21030;-76
2024/04/16 09:46:45;;;;;;;8.58;5.00;;;;;;;15.70;91.11;98946.17;1782322;80;21149;-77
2024/04/16 09:49:16;;;;;;;14.20;4.42;;;;;;;15.74;89.52;98933.50;1782256;80;21062;-77
2024/04/16 09:51:47;;;;;;;15.30;6.10;;;;;;;15.80;89.66;98928.28;1782226;80;21015;-77
2024/04/16 09:54:16;;;;;;;13.60;5.90;;;;;;;15.91;89.81;98936.91;1786390;80;21043;-79
2024/04/16 09:56:46;;;;;;;10.18;5.45;;;;;;;16.01;89.19;98932.81;1786282;80;21031;-77
2024/04/16 09:59:15;;;;;;;11.80;4.85;;;;;;;16.10;88.61;98933.13;1786612;80;21039;-77
2024/04/16 10:01:45;;;;;;;12.15;4.55;;;;;;;16.16;87.89;98934.27;1764865;80;21012;-78
2024/04/16 10:04:15;;;;;;;7.62;3.58;;;;;;;16.25;87.60;98937.89;1764053;81;21464;-78
2024/04/16 10:06:46;;;;;;;8.15;4.28;;;;;;;16.33;85.77;98940.16;1764083;81;21075;-78
2024/04/16 10:09:17;;;;;;;7.30;4.10;;;;;;;16.39;84.90;98936.31;1763820;81;22119;-79
2024/04/16 10:11:47;;;;;;;10.55;4.58;;;;;;;16.45;84.37;98932.46;1763932;81;21028;-78
2024/04/16 10:14:18;;;;;;;10.28;4.37;;;;;;;16.54;84.54;98932.76;1763973;81;21039;-79
2024/04/16 10:16:48;;;;;;;8.50;3.75;;;;;;;16.65;84.12;98933.92;1721848;81;21036;-79
2024/04/16 10:19:17;;;;;;;9.75;4.22;;;;;;;16.72;82.77;98937.26;1764040;81;21106;-79
2024/04/16 10:21:49;;;;;;;12.78;4.25;;;;;;;16.78;83.07;98936.71;1721285;81;21067;-78
2024/04/16 10:24:19;;;;;;;10.72;4.22;;;;;;;16.82;82.72;98930.91;1763951;81;21024;-81
2024/04/16 10:26:51;;;;;;;11.00;3.92;;;;;;;16.86;82.52;98932.58;1745768;81;21068;-77
2024/04/16 10:29:25;;;;;;;8.13;4.25;;;;;;;16.86;81.04;98933.41;1764193;81;21099;-78
2024/04/16 10:31:54;;;;;;;8.25;4.00;;;;;;;16.83;80.45;98930.36;1764188;81;21011;-78
2024/04/16 10:34:24;;;;;;;11.10;4.40;;;;;;;16.77;80.39;98916.52;1763940;81;21071;-77
2024/04/16 10:36:55;;;;;;;8.55;3.70;;;;;;;16.80;80.78;98914.59;1763987;81;21023;-78
2024/04/16 10:39:33;;;;;;;8.43;3.65;;;;;;;16.87;80.86;98909.34;1764007;81;21050;-76
2024/04/16 10:42:03;;;;;;;12.23;4.40;;;;;;;16.95;80.59;98904.67;1763970;81;21027;-79
2024/04/16 10:44:34;;;;;;;8.33;3.85;;;;;;;17.04;80.28;98915.47;1763696;81;21055;-81
2024/04/16 10:47:04;;;;;;;6.95;3.70;;;;;;;17.14;79.39;98912.70;1764134;81;21011;-78
2024/04/16 10:49:33;;;;;;;8.08;3.77;;;;;;;17.22;79.59;98914.08;1745170;81;21064;-78
2024/04/16 10:52:09;;;;;;;8.53;4.05;;;;;;;17.32;79.71;98908.54;1756481;81;21035;-78
2024/04/16 10:54:38;;;;;;;9.45;3.90;;;;;;;17.41;78.85;98904.09;1744069;82;21482;-77
2024/04/16 10:57:07;;;;;;;9.08;5.40;;;;;;;17.48;77.84;98903.81;1743924;82;21015;-77
2024/04/16 10:59:35;;;;;;;8.70;4.97;;;;;;;17.52;77.29;98902.14;1744366;82;21116;-79
2024/04/16 11:02:04;;;;;;;11.73;4.42;;;;;;;17.55;76.96;98905.19;1757296;81;21490;-78
2024/04/16 11:04:34;;;;;;;13.60;4.80;;;;;;;17.61;76.87;98897.17;1773709;80;21072;-79
2024/04/16 11:07:04;;;;;;;9.88;4.70;;;;;;;17.70;75.59;98901.06;1774030;81;21059;-80
2024/04/16 11:09:33;;;;;;;12.95;5.17;;;;;;;17.74;74.93;98895.23;1774301;80;21055;-76
2024/04/16 11:12:05;;;;;;;16.12;5.03;;;;;;;17.78;74.31;98891.89;1744197;81;21031;-76
2024/04/16 11:14:33;;;;;;;11.25;5.03;;;;;;;17.80;74.00;98879.98;1773812;81;21485;-77
2024/04/16 11:17:04;;;;;;;14.43;5.53;;;;;;;17.82;74.07;98889.66;1773583;81;21063;-77
2024/04/16 11:19:33;;;;;;;11.18;5.45;;;;;;;17.84;73.77;98883.28;1773843;81;21024;-79
2024/04/16 11:22:01;;;;;;;11.80;6.10;;;;;;;17.89;73.63;98881.05;1773631;80;21000;-77
2024/04/16 11:24:32;;;;;;;11.25;5.40;;;;;;;17.90;73.58;98885.48;1773899;81;21087;-77
2024/04/16 11:27:00;;;;;;;11.30;5.40;;;;;;;17.91;73.33;98877.44;1773560;80;21043;-77
2024/04/16 11:29:29;;;;;;;12.50;5.67;;;;;;;17.86;73.08;98872.75;1744816;80;21024;-79
2024/04/16 11:31:58;;;;;;;9.25;5.33;;;;;;;17.82;73.47;98866.11;1773898;81;21070;-76
2024/04/16 11:34:27;;;;;;;15.20;5.37;;;;;;;17.80;73.38;98856.42;1773605;81;21038;-78